sensor_id;sensor_type;location;lat;lon;timestamp;P1;durP1;ratioP1;P2;durP2;ratioP2
81365;SDS011;70822;51.990;22.766;2023-09-30T00:14:27;23.20;;;13.73;;
81365;SDS011;70822;51.990;22.766;2023-09-30T00:29:34;23.33;;;13.13;;
81365;SDS011;70822;51.990;22.766;2023-09-30T00:44:39;25.80;;;14.43;;
81365;SDS011;70822;51.990;22.766;2023-09-30T00:59:44;30.20;;;14.60;;
81365;SDS011;70822;51.990;22.766;2023-09-30T01:14:50;23.27;;;14.40;;
81365;SDS011;70822;51.990;22.766;2023-09-30T01:30:03;25.60;;;14.97;;
81365;SDS011;70822;51.990;22.766;2023-09-30T01:45:09;28.23;;;14.20;;
81365;SDS011;70822;51.990;22.766;2023-09-30T02:00:16;24.37;;;14.20;;
81365;SDS011;70822;51.990;22.766;2023-09-30T02:15:21;24.07;;;13.83;;
81365;SDS011;70822;51.990;22.766;2023-09-30T02:30:26;31.23;;;16.13;;
81365;SDS011;70822;51.990;22.766;2023-09-30T03:00:55;22.90;;;12.93;;
81365;SDS011;70822;51.990;22.766;2023-09-30T03:16:02;27.93;;;14.83;;
81365;SDS011;70822;51.990;22.766;2023-09-30T03:31:14;23.17;;;13.07;;
81365;SDS011;70822;51.990;22.766;2023-09-30T03:46:23;25.87;;;14.67;;
81365;SDS011;70822;51.990;22.766;2023-09-30T04:01:30;29.87;;;14.83;;
81365;SDS011;70822;51.990;22.766;2023-09-30T04:16:35;23.60;;;14.60;;
81365;SDS011;70822;51.990;22.766;2023-09-30T04:31:41;31.30;;;15.67;;
81365;SDS011;70822;51.990;22.766;2023-09-30T04:46:46;29.07;;;13.63;;
81365;SDS011;70822;51.990;22.766;2023-09-30T05:01:51;38.67;;;24.93;;
81365;SDS011;70822;51.990;22.766;2023-09-30T05:16:56;26.77;;;12.90;;
81365;SDS011;70822;51.990;22.766;2023-09-30T05:32:00;24.70;;;12.17;;
81365;SDS011;70822;51.990;22.766;2023-09-30T05:47:07;47.80;;;19.00;;
81365;SDS011;70822;51.990;22.766;2023-09-30T06:02:12;35.00;;;16.03;;
81365;SDS011;70822;51.990;22.766;2023-09-30T06:17:17;25.07;;;12.03;;
81365;SDS011;70822;51.990;22.766;2023-09-30T06:32:22;25.30;;;12.93;;
81365;SDS011;70822;51.990;22.766;2023-09-30T06:47:27;20.00;;;11.53;;
81365;SDS011;70822;51.990;22.766;2023-09-30T07:02:34;22.20;;;11.33;;
81365;SDS011;70822;51.990;22.766;2023-09-30T07:17:40;18.73;;;10.93;;
81365;SDS011;70822;51.990;22.766;2023-09-30T07:32:46;18.60;;;11.57;;
81365;SDS011;70822;51.990;22.766;2023-09-30T07:47:50;18.93;;;11.50;;
81365;SDS011;70822;51.990;22.766;2023-09-30T08:02:55;19.93;;;11.63;;
81365;SDS011;70822;51.990;22.766;2023-09-30T08:18:00;17.47;;;10.90;;
81365;SDS011;70822;51.990;22.766;2023-09-30T08:33:08;17.00;;;9.73;;
81365;SDS011;70822;51.990;22.766;2023-09-30T08:48:13;18.37;;;10.10;;
81365;SDS011;70822;51.990;22.766;2023-09-30T09:03:18;15.47;;;9.10;;
81365;SDS011;70822;51.990;22.766;2023-09-30T09:18:32;17.93;;;12.50;;
81365;SDS011;70822;51.990;22.766;2023-09-30T09:33:41;31.33;;;25.20;;
81365;SDS011;70822;51.990;22.766;2023-09-30T09:48:48;15.50;;;10.73;;
81365;SDS011;70822;51.990;22.766;2023-09-30T10:03:57;24.97;;;16.03;;
81365;SDS011;70822;51.990;22.766;2023-09-30T10:19:09;30.67;;;25.63;;
81365;SDS011;70822;51.990;22.766;2023-09-30T10:34:22;13.67;;;8.50;;
81365;SDS011;70822;51.990;22.766;2023-09-30T10:49:31;12.60;;;8.90;;
81365;SDS011;70822;51.990;22.766;2023-09-30T11:04:47;13.13;;;8.97;;
81365;SDS011;70822;51.990;22.766;2023-09-30T11:19:52;15.40;;;10.37;;
81365;SDS011;70822;51.990;22.766;2023-09-30T11:35:00;19.47;;;9.73;;
81365;SDS011;70822;51.990;22.766;2023-09-30T11:50:06;12.67;;;8.27;;
81365;SDS011;70822;51.990;22.766;2023-09-30T12:05:11;13.00;;;8.07;;
81365;SDS011;70822;51.990;22.766;2023-09-30T12:20:17;15.47;;;8.23;;
81365;SDS011;70822;51.990;22.766;2023-09-30T12:35:22;18.53;;;9.83;;
81365;SDS011;70822;51.990;22.766;2023-09-30T12:50:26;18.90;;;12.63;;
81365;SDS011;70822;51.990;22.766;2023-09-30T13:05:31;20.37;;;12.57;;
81365;SDS011;70822;51.990;22.766;2023-09-30T13:20:36;24.17;;;14.43;;
81365;SDS011;70822;51.990;22.766;2023-09-30T13:35:40;17.50;;;10.07;;
81365;SDS011;70822;51.990;22.766;2023-09-30T13:50:45;9.70;;;7.43;;
81365;SDS011;70822;51.990;22.766;2023-09-30T14:05:50;8.57;;;4.93;;
81365;SDS011;70822;51.990;22.766;2023-09-30T14:20:55;9.47;;;5.40;;
81365;SDS011;70822;51.990;22.766;2023-09-30T14:35:59;9.80;;;4.93;;
81365;SDS011;70822;51.990;22.766;2023-09-30T14:51:04;7.83;;;3.93;;
81365;SDS011;70822;51.990;22.766;2023-09-30T15:06:10;3.60;;;1.93;;
81365;SDS011;70822;51.990;22.766;2023-09-30T15:21:15;5.60;;;1.80;;
81365;SDS011;70822;51.990;22.766;2023-09-30T15:36:20;6.23;;;2.23;;
81365;SDS011;70822;51.990;22.766;2023-09-30T15:51:25;5.33;;;2.23;;
81365;SDS011;70822;51.990;22.766;2023-09-30T16:06:30;4.83;;;2.07;;
81365;SDS011;70822;51.990;22.766;2023-09-30T16:21:37;9.93;;;2.57;;
81365;SDS011;70822;51.990;22.766;2023-09-30T16:36:43;5.97;;;2.37;;
81365;SDS011;70822;51.990;22.766;2023-09-30T16:51:47;7.30;;;2.37;;
81365;SDS011;70822;51.990;22.766;2023-09-30T17:06:52;13.10;;;5.93;;
81365;SDS011;70822;51.990;22.766;2023-09-30T17:21:58;9.73;;;6.57;;
81365;SDS011;70822;51.990;22.766;2023-09-30T17:37:03;14.70;;;7.77;;
81365;SDS011;70822;51.990;22.766;2023-09-30T17:52:08;8.17;;;3.73;;
81365;SDS011;70822;51.990;22.766;2023-09-30T18:07:13;7.73;;;4.83;;
81365;SDS011;70822;51.990;22.766;2023-09-30T18:22:18;11.17;;;5.30;;
81365;SDS011;70822;51.990;22.766;2023-09-30T18:37:23;14.87;;;5.47;;
81365;SDS011;70822;51.990;22.766;2023-09-30T18:52:28;13.17;;;4.97;;
81365;SDS011;70822;51.990;22.766;2023-09-30T19:07:33;11.50;;;4.60;;
81365;SDS011;70822;51.990;22.766;2023-09-30T19:22:38;10.30;;;4.80;;
81365;SDS011;70822;51.990;22.766;2023-09-30T19:37:44;13.97;;;6.07;;
81365;SDS011;70822;51.990;22.766;2023-09-30T19:52:49;9.90;;;4.67;;
81365;SDS011;70822;51.990;22.766;2023-09-30T20:07:54;11.63;;;4.67;;
81365;SDS011;70822;51.990;22.766;2023-09-30T20:22:59;12.40;;;5.23;;
81365;SDS011;70822;51.990;22.766;2023-09-30T20:38:06;13.23;;;4.27;;
81365;SDS011;70822;51.990;22.766;2023-09-30T20:53:10;11.70;;;4.80;;
81365;SDS011;70822;51.990;22.766;2023-09-30T21:08:16;9.13;;;4.57;;
81365;SDS011;70822;51.990;22.766;2023-09-30T21:23:25;10.90;;;3.90;;
81365;SDS011;70822;51.990;22.766;2023-09-30T21:38:30;23.77;;;9.97;;
81365;SDS011;70822;51.990;22.766;2023-09-30T21:53:35;9.67;;;4.60;;
81365;SDS011;70822;51.990;22.766;2023-09-30T22:08:40;12.10;;;4.30;;
81365;SDS011;70822;51.990;22.766;2023-09-30T22:23:45;7.20;;;3.17;;
81365;SDS011;70822;51.990;22.766;2023-09-30T22:38:50;11.13;;;3.47;;
81365;SDS011;70822;51.990;22.766;2023-09-30T22:53:55;8.10;;;3.20;;
81365;SDS011;70822;51.990;22.766;2023-09-30T23:09:00;8.13;;;3.53;;
81365;SDS011;70822;51.990;22.766;2023-09-30T23:24:08;8.97;;;3.70;;
81365;SDS011;70822;51.990;22.766;2023-09-30T23:39:13;13.63;;;5.33;;
81365;SDS011;70822;51.990;22.766;2023-09-30T23:54:18;5.77;;;3.27;;
